Hussar, Canada
Current Conditions -  °F | °C
As of 11:00 PM on Thursday 18 Dec 2014 (Local Time) from CYYC Reporting Station
Clear Clear  
Wind Chill: 28°   Ceiling: Unl
Heat Index: 28°   Visibility: 15mi
Dew Point: 19°   Wind: 3mph
Humidity: 69%   Direction: 200°SSW
Pressure: 29.77"   Gusts: NA
Location:  51.03°N, 112.68°W
Report Text: CYYC 190600Z 20003KT 15SM SKC M02/M07 A2977 RMK SLP130
Loading
Personal Weather Stations






























Interactive Weather Map New forecast layout! Learn more

10-Day Weather Forecast

Advertisements
Track Severe Weather on mobile